sensor_id;sensor_type;location;lat;lon;timestamp;temperature;humidity
50556;DHT22;36508;52.512;13.450;2023-05-14T00:02:01;15.70;98.20
50556;DHT22;36508;52.512;13.450;2023-05-14T00:04:27;15.70;98.30
50556;DHT22;36508;52.512;13.450;2023-05-14T00:06:53;15.70;98.20
50556;DHT22;36508;52.512;13.450;2023-05-14T00:09:21;15.70;98.40
50556;DHT22;36508;52.512;13.450;2023-05-14T00:11:47;15.60;98.60
50556;DHT22;36508;52.512;13.450;2023-05-14T00:14:12;15.60;98.60
50556;DHT22;36508;52.512;13.450;2023-05-14T00:16:38;15.60;99.30
50556;DHT22;36508;52.512;13.450;2023-05-14T00:19:04;15.60;99.20
50556;DHT22;36508;52.512;13.450;2023-05-14T00:21:29;15.50;99.30
50556;DHT22;36508;52.512;13.450;2023-05-14T00:23:56;15.50;99.80
50556;DHT22;36508;52.512;13.450;2023-05-14T00:26:21;15.50;99.90
50556;DHT22;36508;52.512;13.450;2023-05-14T00:28:47;15.50;99.90
50556;DHT22;36508;52.512;13.450;2023-05-14T00:31:13;15.40;99.90
50556;DHT22;36508;52.512;13.450;2023-05-14T00:33:39;15.40;99.90
50556;DHT22;36508;52.512;13.450;2023-05-14T00:36:05;15.40;99.90
50556;DHT22;36508;52.512;13.450;2023-05-14T00:38:31;15.40;99.90
50556;DHT22;36508;52.512;13.450;2023-05-14T00:40:56;15.40;99.90
50556;DHT22;36508;52.512;13.450;2023-05-14T00:43:26;15.40;99.90
50556;DHT22;36508;52.512;13.450;2023-05-14T00:45:53;15.50;99.90
50556;DHT22;36508;52.512;13.450;2023-05-14T00:48:20;15.40;99.90
50556;DHT22;36508;52.512;13.450;2023-05-14T00:50:49;15.40;99.90
50556;DHT22;36508;52.512;13.450;2023-05-14T00:53:15;15.40;99.90
50556;DHT22;36508;52.512;13.450;2023-05-14T00:55:42;15.50;99.90
50556;DHT22;36508;52.512;13.450;2023-05-14T00:58:12;15.50;99.90
50556;DHT22;36508;52.512;13.450;2023-05-14T01:00:38;15.40;99.90
50556;DHT22;36508;52.512;13.450;2023-05-14T01:03:05;15.40;99.90
50556;DHT22;36508;52.512;13.450;2023-05-14T01:11:19;15.30;99.90
50556;DHT22;36508;52.512;13.450;2023-05-14T01:16:25;15.30;99.90
50556;DHT22;36508;52.512;13.450;2023-05-14T01:18:54;15.20;99.90
50556;DHT22;36508;52.512;13.450;2023-05-14T01:21:39;15.20;99.90
50556;DHT22;36508;52.512;13.450;2023-05-14T01:24:07;15.20;99.90
50556;DHT22;36508;52.512;13.450;2023-05-14T01:26:34;15.10;99.90
50556;DHT22;36508;52.512;13.450;2023-05-14T01:31:35;15.00;99.90
50556;DHT22;36508;52.512;13.450;2023-05-14T01:34:04;15.00;99.90
50556;DHT22;36508;52.512;13.450;2023-05-14T01:36:31;15.00;99.90
50556;DHT22;36508;52.512;13.450;2023-05-14T01:38:59;15.00;99.90
50556;DHT22;36508;52.512;13.450;2023-05-14T01:41:25;15.00;99.90
50556;DHT22;36508;52.512;13.450;2023-05-14T01:43:51;14.90;99.90
50556;DHT22;36508;52.512;13.450;2023-05-14T01:46:20;15.00;99.90
50556;DHT22;36508;52.512;13.450;2023-05-14T01:48:48;15.00;99.90
50556;DHT22;36508;52.512;13.450;2023-05-14T01:51:14;15.00;99.90
50556;DHT22;36508;52.512;13.450;2023-05-14T01:53:40;15.10;99.90
50556;DHT22;36508;52.512;13.450;2023-05-14T01:56:05;15.10;99.90
50556;DHT22;36508;52.512;13.450;2023-05-14T01:58:31;15.10;99.90
50556;DHT22;36508;52.512;13.450;2023-05-14T02:01:06;15.10;99.90
50556;DHT22;36508;52.512;13.450;2023-05-14T02:03:36;15.10;99.90
50556;DHT22;36508;52.512;13.450;2023-05-14T02:06:22;15.10;99.90
50556;DHT22;36508;52.512;13.450;2023-05-14T02:08:48;15.10;99.80
50556;DHT22;36508;52.512;13.450;2023-05-14T02:11:13;15.10;99.70
50556;DHT22;36508;52.512;13.450;2023-05-14T02:13:39;15.10;99.90
50556;DHT22;36508;52.512;13.450;2023-05-14T02:16:05;15.20;99.70
50556;DHT22;36508;52.512;13.450;2023-05-14T02:18:30;15.20;99.70
50556;DHT22;36508;52.512;13.450;2023-05-14T02:20:56;15.20;99.70
50556;DHT22;36508;52.512;13.450;2023-05-14T02:23:22;15.30;99.90
50556;DHT22;36508;52.512;13.450;2023-05-14T02:25:47;15.30;99.30
50556;DHT22;36508;52.512;13.450;2023-05-14T02:28:13;15.30;99.10
50556;DHT22;36508;52.512;13.450;2023-05-14T02:30:38;15.20;99.00
50556;DHT22;36508;52.512;13.450;2023-05-14T02:33:04;15.30;99.10
50556;DHT22;36508;52.512;13.450;2023-05-14T02:35:30;15.20;99.20
50556;DHT22;36508;52.512;13.450;2023-05-14T02:37:55;15.30;98.90
50556;DHT22;36508;52.512;13.450;2023-05-14T02:40:21;15.30;98.60
50556;DHT22;36508;52.512;13.450;2023-05-14T02:42:46;15.30;98.20
50556;DHT22;36508;52.512;13.450;2023-05-14T02:45:12;15.40;98.30
50556;DHT22;36508;52.512;13.450;2023-05-14T02:47:38;15.50;97.50
50556;DHT22;36508;52.512;13.450;2023-05-14T02:50:04;15.50;97.20
50556;DHT22;36508;52.512;13.450;2023-05-14T02:52:30;15.50;97.20
50556;DHT22;36508;52.512;13.450;2023-05-14T02:54:56;15.60;97.20
50556;DHT22;36508;52.512;13.450;2023-05-14T02:57:21;15.60;97.40
50556;DHT22;36508;52.512;13.450;2023-05-14T02:59:47;15.50;96.60
50556;DHT22;36508;52.512;13.450;2023-05-14T03:02:12;15.60;96.60
50556;DHT22;36508;52.512;13.450;2023-05-14T03:04:38;15.60;96.40
50556;DHT22;36508;52.512;13.450;2023-05-14T03:07:04;15.50;96.20
50556;DHT22;36508;52.512;13.450;2023-05-14T03:09:29;15.50;96.10
50556;DHT22;36508;52.512;13.450;2023-05-14T03:11:55;15.50;96.10
50556;DHT22;36508;52.512;13.450;2023-05-14T03:14:21;15.50;95.90
50556;DHT22;36508;52.512;13.450;2023-05-14T03:16:46;15.50;96.00
50556;DHT22;36508;52.512;13.450;2023-05-14T03:19:12;15.50;96.00
50556;DHT22;36508;52.512;13.450;2023-05-14T03:21:38;15.50;95.80
50556;DHT22;36508;52.512;13.450;2023-05-14T03:24:03;15.70;96.10
50556;DHT22;36508;52.512;13.450;2023-05-14T03:26:29;15.50;95.80
50556;DHT22;36508;52.512;13.450;2023-05-14T03:28:55;15.80;95.70
50556;DHT22;36508;52.512;13.450;2023-05-14T03:31:20;15.90;96.10
50556;DHT22;36508;52.512;13.450;2023-05-14T03:33:46;15.80;95.10
50556;DHT22;36508;52.512;13.450;2023-05-14T03:36:11;15.80;95.10
50556;DHT22;36508;52.512;13.450;2023-05-14T03:38:37;15.90;95.00
50556;DHT22;36508;52.512;13.450;2023-05-14T03:41:02;16.00;95.00
50556;DHT22;36508;52.512;13.450;2023-05-14T03:43:28;15.90;94.40
50556;DHT22;36508;52.512;13.450;2023-05-14T03:45:54;15.70;94.50
50556;DHT22;36508;52.512;13.450;2023-05-14T03:48:19;15.70;94.70
50556;DHT22;36508;52.512;13.450;2023-05-14T03:50:45;15.70;95.10
50556;DHT22;36508;52.512;13.450;2023-05-14T03:53:11;15.60;94.80
50556;DHT22;36508;52.512;13.450;2023-05-14T03:55:36;15.70;94.80
50556;DHT22;36508;52.512;13.450;2023-05-14T03:58:02;15.70;95.10
50556;DHT22;36508;52.512;13.450;2023-05-14T04:00:30;15.70;94.80
50556;DHT22;36508;52.512;13.450;2023-05-14T04:02:55;15.70;94.80
50556;DHT22;36508;52.512;13.450;2023-05-14T04:05:21;15.60;94.80
50556;DHT22;36508;52.512;13.450;2023-05-14T04:07:47;15.50;94.80
50556;DHT22;36508;52.512;13.450;2023-05-14T04:10:13;15.50;95.20
50556;DHT22;36508;52.512;13.450;2023-05-14T04:12:38;15.50;95.00
50556;DHT22;36508;52.512;13.450;2023-05-14T04:15:04;15.50;95.20
50556;DHT22;36508;52.512;13.450;2023-05-14T04:17:30;15.50;95.10
50556;DHT22;36508;52.512;13.450;2023-05-14T04:19:56;15.50;95.40
50556;DHT22;36508;52.512;13.450;2023-05-14T04:22:22;15.50;95.30
50556;DHT22;36508;52.512;13.450;2023-05-14T04:24:47;15.40;95.50
50556;DHT22;36508;52.512;13.450;2023-05-14T04:27:19;15.40;95.60
50556;DHT22;36508;52.512;13.450;2023-05-14T04:29:48;15.40;95.80
50556;DHT22;36508;52.512;13.450;2023-05-14T04:32:14;15.60;95.70
50556;DHT22;36508;52.512;13.450;2023-05-14T04:34:40;15.60;96.00
50556;DHT22;36508;52.512;13.450;2023-05-14T04:37:06;15.40;95.90
50556;DHT22;36508;52.512;13.450;2023-05-14T04:39:31;15.40;95.90
50556;DHT22;36508;52.512;13.450;2023-05-14T04:41:57;15.40;96.10
50556;DHT22;36508;52.512;13.450;2023-05-14T04:44:22;15.60;96.30
50556;DHT22;36508;52.512;13.450;2023-05-14T04:46:48;15.70;95.70
50556;DHT22;36508;52.512;13.450;2023-05-14T04:49:14;15.70;95.80
50556;DHT22;36508;52.512;13.450;2023-05-14T04:51:39;15.70;95.60
50556;DHT22;36508;52.512;13.450;2023-05-14T04:54:05;15.70;95.70
50556;DHT22;36508;52.512;13.450;2023-05-14T04:56:31;15.50;95.70
50556;DHT22;36508;52.512;13.450;2023-05-14T04:58:56;15.60;95.90
50556;DHT22;36508;52.512;13.450;2023-05-14T05:01:22;15.60;95.80
50556;DHT22;36508;52.512;13.450;2023-05-14T05:03:47;15.80;95.80
50556;DHT22;36508;52.512;13.450;2023-05-14T05:06:13;15.60;95.70
50556;DHT22;36508;52.512;13.450;2023-05-14T05:08:39;15.60;95.50
50556;DHT22;36508;52.512;13.450;2023-05-14T05:11:05;15.70;95.60
50556;DHT22;36508;52.512;13.450;2023-05-14T05:13:31;15.70;96.00
50556;DHT22;36508;52.512;13.450;2023-05-14T05:15:57;15.70;95.90
50556;DHT22;36508;52.512;13.450;2023-05-14T05:18:22;15.60;95.40
50556;DHT22;36508;52.512;13.450;2023-05-14T05:20:48;15.70;94.50
50556;DHT22;36508;52.512;13.450;2023-05-14T05:23:13;15.80;94.00
50556;DHT22;36508;52.512;13.450;2023-05-14T05:25:39;15.90;93.80
50556;DHT22;36508;52.512;13.450;2023-05-14T05:28:05;16.00;93.80
50556;DHT22;36508;52.512;13.450;2023-05-14T05:30:31;16.10;93.40
50556;DHT22;36508;52.512;13.450;2023-05-14T05:32:56;16.20;93.10
50556;DHT22;36508;52.512;13.450;2023-05-14T05:35:22;16.30;93.20
50556;DHT22;36508;52.512;13.450;2023-05-14T05:37:48;16.30;93.00
50556;DHT22;36508;52.512;13.450;2023-05-14T05:40:13;16.40;92.90
50556;DHT22;36508;52.512;13.450;2023-05-14T05:42:40;16.40;92.40
50556;DHT22;36508;52.512;13.450;2023-05-14T05:45:06;16.40;92.60
50556;DHT22;36508;52.512;13.450;2023-05-14T05:47:37;16.40;92.70
50556;DHT22;36508;52.512;13.450;2023-05-14T05:50:03;16.40;92.60
50556;DHT22;36508;52.512;13.450;2023-05-14T05:52:29;16.50;92.60
50556;DHT22;36508;52.512;13.450;2023-05-14T05:54:55;16.50;92.40
50556;DHT22;36508;52.512;13.450;2023-05-14T05:57:20;16.60;92.40
50556;DHT22;36508;52.512;13.450;2023-05-14T05:59:47;16.60;92.10
50556;DHT22;36508;52.512;13.450;2023-05-14T06:02:13;16.60;91.90
50556;DHT22;36508;52.512;13.450;2023-05-14T06:04:39;16.70;91.80
50556;DHT22;36508;52.512;13.450;2023-05-14T06:07:04;16.90;91.90
50556;DHT22;36508;52.512;13.450;2023-05-14T06:09:30;16.90;91.70
50556;DHT22;36508;52.512;13.450;2023-05-14T06:11:56;16.90;91.70
50556;DHT22;36508;52.512;13.450;2023-05-14T06:14:22;16.90;91.80
50556;DHT22;36508;52.512;13.450;2023-05-14T06:16:47;16.90;91.70
50556;DHT22;36508;52.512;13.450;2023-05-14T06:19:13;17.00;91.60
50556;DHT22;36508;52.512;13.450;2023-05-14T06:21:39;17.00;91.70
50556;DHT22;36508;52.512;13.450;2023-05-14T06:24:05;17.10;91.60
50556;DHT22;36508;52.512;13.450;2023-05-14T06:26:30;17.10;91.50
50556;DHT22;36508;52.512;13.450;2023-05-14T06:28:56;17.00;91.70
50556;DHT22;36508;52.512;13.450;2023-05-14T06:31:23;17.20;91.80
50556;DHT22;36508;52.512;13.450;2023-05-14T06:33:48;17.30;91.40
50556;DHT22;36508;52.512;13.450;2023-05-14T06:36:14;17.40;91.50
50556;DHT22;36508;52.512;13.450;2023-05-14T06:38:39;17.50;91.40
50556;DHT22;36508;52.512;13.450;2023-05-14T06:41:05;17.60;91.20
50556;DHT22;36508;52.512;13.450;2023-05-14T06:43:31;17.70;90.90
50556;DHT22;36508;52.512;13.450;2023-05-14T06:45:56;17.80;91.00
50556;DHT22;36508;52.512;13.450;2023-05-14T06:48:22;17.80;91.00
50556;DHT22;36508;52.512;13.450;2023-05-14T06:50:48;18.00;90.50
50556;DHT22;36508;52.512;13.450;2023-05-14T06:53:14;18.10;90.60
50556;DHT22;36508;52.512;13.450;2023-05-14T06:55:40;18.20;90.40
50556;DHT22;36508;52.512;13.450;2023-05-14T06:58:06;18.30;90.40
50556;DHT22;36508;52.512;13.450;2023-05-14T07:00:31;18.40;90.20
50556;DHT22;36508;52.512;13.450;2023-05-14T07:02:57;18.40;90.10
50556;DHT22;36508;52.512;13.450;2023-05-14T07:05:23;18.10;89.80
50556;DHT22;36508;52.512;13.450;2023-05-14T07:07:49;18.00;90.30
50556;DHT22;36508;52.512;13.450;2023-05-14T07:10:14;18.10;90.70
50556;DHT22;36508;52.512;13.450;2023-05-14T07:12:40;18.30;90.40
50556;DHT22;36508;52.512;13.450;2023-05-14T07:15:06;18.30;90.20
50556;DHT22;36508;52.512;13.450;2023-05-14T07:17:32;18.40;89.60
50556;DHT22;36508;52.512;13.450;2023-05-14T07:20:07;18.50;90.20
50556;DHT22;36508;52.512;13.450;2023-05-14T07:22:33;18.60;90.20
50556;DHT22;36508;52.512;13.450;2023-05-14T07:24:58;18.60;90.10
50556;DHT22;36508;52.512;13.450;2023-05-14T07:27:24;18.70;90.10
50556;DHT22;36508;52.512;13.450;2023-05-14T07:29:50;18.80;89.50
50556;DHT22;36508;52.512;13.450;2023-05-14T07:32:15;19.00;89.10
50556;DHT22;36508;52.512;13.450;2023-05-14T07:34:59;19.10;89.50
50556;DHT22;36508;52.512;13.450;2023-05-14T07:37:25;19.30;89.00
50556;DHT22;36508;52.512;13.450;2023-05-14T07:39:51;19.30;88.60
50556;DHT22;36508;52.512;13.450;2023-05-14T07:42:17;19.50;87.90
50556;DHT22;36508;52.512;13.450;2023-05-14T07:44:42;19.70;87.70
50556;DHT22;36508;52.512;13.450;2023-05-14T07:47:08;19.70;87.70
50556;DHT22;36508;52.512;13.450;2023-05-14T07:49:35;19.60;86.10
50556;DHT22;36508;52.512;13.450;2023-05-14T07:52:01;19.50;87.50
50556;DHT22;36508;52.512;13.450;2023-05-14T07:54:26;19.80;86.40
50556;DHT22;36508;52.512;13.450;2023-05-14T07:56:52;19.90;86.60
50556;DHT22;36508;52.512;13.450;2023-05-14T07:59:18;20.00;86.50
50556;DHT22;36508;52.512;13.450;2023-05-14T08:01:43;20.20;85.70
50556;DHT22;36508;52.512;13.450;2023-05-14T08:04:09;20.20;85.40
50556;DHT22;36508;52.512;13.450;2023-05-14T08:06:39;20.40;84.10
50556;DHT22;36508;52.512;13.450;2023-05-14T08:09:06;20.40;83.60
50556;DHT22;36508;52.512;13.450;2023-05-14T08:11:33;20.40;81.70
50556;DHT22;36508;52.512;13.450;2023-05-14T08:13:59;20.40;82.20
50556;DHT22;36508;52.512;13.450;2023-05-14T08:16:25;20.50;81.70
50556;DHT22;36508;52.512;13.450;2023-05-14T08:18:51;20.50;82.20
50556;DHT22;36508;52.512;13.450;2023-05-14T08:21:16;20.50;82.00
50556;DHT22;36508;52.512;13.450;2023-05-14T08:23:42;20.80;82.90
50556;DHT22;36508;52.512;13.450;2023-05-14T08:26:08;20.90;81.00
50556;DHT22;36508;52.512;13.450;2023-05-14T08:28:33;21.10;81.00
50556;DHT22;36508;52.512;13.450;2023-05-14T08:30:59;21.20;81.00
50556;DHT22;36508;52.512;13.450;2023-05-14T08:33:25;21.50;81.10
50556;DHT22;36508;52.512;13.450;2023-05-14T08:35:53;21.60;80.00
50556;DHT22;36508;52.512;13.450;2023-05-14T08:38:19;21.50;79.10
50556;DHT22;36508;52.512;13.450;2023-05-14T08:41:00;21.30;79.10
50556;DHT22;36508;52.512;13.450;2023-05-14T08:43:38;21.30;79.30
50556;DHT22;36508;52.512;13.450;2023-05-14T08:46:05;21.30;79.10
50556;DHT22;36508;52.512;13.450;2023-05-14T08:48:31;21.60;77.70
50556;DHT22;36508;52.512;13.450;2023-05-14T08:50:58;21.90;78.00
50556;DHT22;36508;52.512;13.450;2023-05-14T08:53:25;21.80;76.50
50556;DHT22;36508;52.512;13.450;2023-05-14T08:55:52;21.80;77.40
50556;DHT22;36508;52.512;13.450;2023-05-14T08:58:18;21.80;74.80
50556;DHT22;36508;52.512;13.450;2023-05-14T09:00:44;22.00;74.60
50556;DHT22;36508;52.512;13.450;2023-05-14T09:03:10;21.90;75.30
50556;DHT22;36508;52.512;13.450;2023-05-14T09:05:36;22.00;75.60
50556;DHT22;36508;52.512;13.450;2023-05-14T09:08:02;22.20;75.80
50556;DHT22;36508;52.512;13.450;2023-05-14T09:10:28;22.00;76.00
50556;DHT22;36508;52.512;13.450;2023-05-14T09:12:53;21.70;74.70
50556;DHT22;36508;52.512;13.450;2023-05-14T09:15:19;21.70;76.00
50556;DHT22;36508;52.512;13.450;2023-05-14T09:17:45;21.80;74.10
50556;DHT22;36508;52.512;13.450;2023-05-14T09:20:13;21.90;73.80
50556;DHT22;36508;52.512;13.450;2023-05-14T09:22:39;22.00;73.70
50556;DHT22;36508;52.512;13.450;2023-05-14T09:25:08;21.80;72.60
50556;DHT22;36508;52.512;13.450;2023-05-14T09:27:36;21.70;72.70
50556;DHT22;36508;52.512;13.450;2023-05-14T09:30:10;21.80;73.10
50556;DHT22;36508;52.512;13.450;2023-05-14T09:32:40;21.90;74.60
50556;DHT22;36508;52.512;13.450;2023-05-14T09:35:19;22.20;74.10
50556;DHT22;36508;52.512;13.450;2023-05-14T09:37:51;22.40;73.60
50556;DHT22;36508;52.512;13.450;2023-05-14T09:40:19;22.40;71.60
50556;DHT22;36508;52.512;13.450;2023-05-14T09:42:45;21.90;70.80
50556;DHT22;36508;52.512;13.450;2023-05-14T09:45:11;21.90;72.50
50556;DHT22;36508;52.512;13.450;2023-05-14T09:47:37;22.00;71.60
50556;DHT22;36508;52.512;13.450;2023-05-14T09:50:04;22.10;70.20
50556;DHT22;36508;52.512;13.450;2023-05-14T09:52:30;22.10;69.10
50556;DHT22;36508;52.512;13.450;2023-05-14T09:54:56;22.10;68.70
50556;DHT22;36508;52.512;13.450;2023-05-14T09:57:21;22.20;69.20
50556;DHT22;36508;52.512;13.450;2023-05-14T09:59:47;22.50;68.30
50556;DHT22;36508;52.512;13.450;2023-05-14T10:02:29;22.50;68.00
50556;DHT22;36508;52.512;13.450;2023-05-14T10:04:59;22.70;68.10
50556;DHT22;36508;52.512;13.450;2023-05-14T10:07:32;22.60;67.30
50556;DHT22;36508;52.512;13.450;2023-05-14T10:10:02;22.60;67.60
50556;DHT22;36508;52.512;13.450;2023-05-14T10:12:31;22.40;68.50
50556;DHT22;36508;52.512;13.450;2023-05-14T10:15:01;22.60;68.10
50556;DHT22;36508;52.512;13.450;2023-05-14T10:17:30;22.50;68.10
50556;DHT22;36508;52.512;13.450;2023-05-14T10:19:57;22.40;68.10
50556;DHT22;36508;52.512;13.450;2023-05-14T10:22:26;22.20;66.40
50556;DHT22;36508;52.512;13.450;2023-05-14T10:24:55;22.00;66.70
50556;DHT22;36508;52.512;13.450;2023-05-14T10:27:22;21.80;67.10
50556;DHT22;36508;52.512;13.450;2023-05-14T10:29:52;22.00;67.10
50556;DHT22;36508;52.512;13.450;2023-05-14T10:32:22;22.40;68.10
50556;DHT22;36508;52.512;13.450;2023-05-14T10:34:50;23.40;68.10
50556;DHT22;36508;52.512;13.450;2023-05-14T10:37:21;25.10;63.80
50556;DHT22;36508;52.512;13.450;2023-05-14T10:39:58;25.40;62.20
50556;DHT22;36508;52.512;13.450;2023-05-14T10:42:32;24.60;63.40
50556;DHT22;36508;52.512;13.450;2023-05-14T10:45:02;24.10;63.60
50556;DHT22;36508;52.512;13.450;2023-05-14T10:47:35;23.60;64.60
50556;DHT22;36508;52.512;13.450;2023-05-14T10:50:03;23.10;64.30
50556;DHT22;36508;52.512;13.450;2023-05-14T10:52:30;22.80;64.00
50556;DHT22;36508;52.512;13.450;2023-05-14T10:55:00;22.90;64.50
50556;DHT22;36508;52.512;13.450;2023-05-14T10:57:28;22.70;64.30
50556;DHT22;36508;52.512;13.450;2023-05-14T10:59:56;22.70;65.00
50556;DHT22;36508;52.512;13.450;2023-05-14T11:04:55;22.20;66.60
50556;DHT22;36508;52.512;13.450;2023-05-14T11:07:29;22.10;66.90
50556;DHT22;36508;52.512;13.450;2023-05-14T11:10:03;21.90;66.90
50556;DHT22;36508;52.512;13.450;2023-05-14T11:12:29;21.90;66.50
50556;DHT22;36508;52.512;13.450;2023-05-14T11:14:59;21.60;66.10
50556;DHT22;36508;52.512;13.450;2023-05-14T11:17:29;21.40;67.20
50556;DHT22;36508;52.512;13.450;2023-05-14T11:19:56;21.30;67.60
50556;DHT22;36508;52.512;13.450;2023-05-14T11:22:22;21.30;67.70
50556;DHT22;36508;52.512;13.450;2023-05-14T11:24:48;21.20;68.10
50556;DHT22;36508;52.512;13.450;2023-05-14T11:27:15;21.20;68.20
50556;DHT22;36508;52.512;13.450;2023-05-14T11:29:44;21.40;68.70
50556;DHT22;36508;52.512;13.450;2023-05-14T11:32:12;21.50;68.00
50556;DHT22;36508;52.512;13.450;2023-05-14T11:34:39;21.70;67.80
50556;DHT22;36508;52.512;13.450;2023-05-14T11:37:07;21.80;68.30
50556;DHT22;36508;52.512;13.450;2023-05-14T11:39:33;21.90;69.00
50556;DHT22;36508;52.512;13.450;2023-05-14T11:42:19;22.00;68.80
50556;DHT22;36508;52.512;13.450;2023-05-14T11:44:54;22.00;68.70
50556;DHT22;36508;52.512;13.450;2023-05-14T11:47:20;21.90;70.10
50556;DHT22;36508;52.512;13.450;2023-05-14T11:49:47;21.90;69.30
50556;DHT22;36508;52.512;13.450;2023-05-14T11:52:14;21.80;69.50
50556;DHT22;36508;52.512;13.450;2023-05-14T11:54:41;21.80;69.10
50556;DHT22;36508;52.512;13.450;2023-05-14T11:57:15;21.60;70.00
50556;DHT22;36508;52.512;13.450;2023-05-14T11:59:41;21.70;70.20
50556;DHT22;36508;52.512;13.450;2023-05-14T12:02:11;21.90;70.70
50556;DHT22;36508;52.512;13.450;2023-05-14T12:04:38;21.90;71.00
50556;DHT22;36508;52.512;13.450;2023-05-14T12:07:08;21.90;70.00
50556;DHT22;36508;52.512;13.450;2023-05-14T12:09:36;22.00;70.30
50556;DHT22;36508;52.512;13.450;2023-05-14T12:12:10;22.10;69.50
50556;DHT22;36508;52.512;13.450;2023-05-14T12:14:40;22.60;70.90
50556;DHT22;36508;52.512;13.450;2023-05-14T12:17:18;23.30;69.60
50556;DHT22;36508;52.512;13.450;2023-05-14T12:19:45;24.00;67.40
50556;DHT22;36508;52.512;13.450;2023-05-14T12:22:13;24.20;66.20
50556;DHT22;36508;52.512;13.450;2023-05-14T12:24:39;24.40;65.80
50556;DHT22;36508;52.512;13.450;2023-05-14T12:27:08;24.30;67.40
50556;DHT22;36508;52.512;13.450;2023-05-14T12:29:37;24.30;65.40
50556;DHT22;36508;52.512;13.450;2023-05-14T12:32:07;23.80;65.20
50556;DHT22;36508;52.512;13.450;2023-05-14T12:34:34;23.50;66.20
50556;DHT22;36508;52.512;13.450;2023-05-14T12:37:01;23.40;65.40
50556;DHT22;36508;52.512;13.450;2023-05-14T12:39:33;23.10;64.70
50556;DHT22;36508;52.512;13.450;2023-05-14T12:42:00;23.00;64.10
50556;DHT22;36508;52.512;13.450;2023-05-14T12:44:27;22.80;64.20
50556;DHT22;36508;52.512;13.450;2023-05-14T12:46:58;22.60;64.70
50556;DHT22;36508;52.512;13.450;2023-05-14T12:49:26;22.70;65.00
50556;DHT22;36508;52.512;13.450;2023-05-14T12:51:53;22.80;64.60
50556;DHT22;36508;52.512;13.450;2023-05-14T12:54:19;22.90;63.90
50556;DHT22;36508;52.512;13.450;2023-05-14T12:56:44;23.10;63.30
50556;DHT22;36508;52.512;13.450;2023-05-14T12:59:10;23.10;62.40
50556;DHT22;36508;52.512;13.450;2023-05-14T13:01:35;23.00;62.10
50556;DHT22;36508;52.512;13.450;2023-05-14T13:04:03;23.00;62.50
50556;DHT22;36508;52.512;13.450;2023-05-14T13:06:28;22.80;62.40
50556;DHT22;36508;52.512;13.450;2023-05-14T13:08:54;22.80;61.80
50556;DHT22;36508;52.512;13.450;2023-05-14T13:11:21;22.70;62.80
50556;DHT22;36508;52.512;13.450;2023-05-14T13:13:48;22.60;62.00
50556;DHT22;36508;52.512;13.450;2023-05-14T13:16:13;22.50;62.50
50556;DHT22;36508;52.512;13.450;2023-05-14T13:18:41;22.30;62.90
50556;DHT22;36508;52.512;13.450;2023-05-14T13:21:07;22.30;62.30
50556;DHT22;36508;52.512;13.450;2023-05-14T13:23:32;22.30;62.50
50556;DHT22;36508;52.512;13.450;2023-05-14T13:25:58;22.20;62.80
50556;DHT22;36508;52.512;13.450;2023-05-14T13:28:23;22.10;62.90
50556;DHT22;36508;52.512;13.450;2023-05-14T13:31:13;22.10;63.80
50556;DHT22;36508;52.512;13.450;2023-05-14T13:33:42;22.20;63.00
50556;DHT22;36508;52.512;13.450;2023-05-14T13:36:08;22.10;63.00
50556;DHT22;36508;52.512;13.450;2023-05-14T13:38:35;22.20;63.40
50556;DHT22;36508;52.512;13.450;2023-05-14T13:41:01;22.00;64.10
50556;DHT22;36508;52.512;13.450;2023-05-14T13:43:34;22.10;63.80
50556;DHT22;36508;52.512;13.450;2023-05-14T13:46:00;22.10;64.00
50556;DHT22;36508;52.512;13.450;2023-05-14T13:48:26;22.10;63.30
50556;DHT22;36508;52.512;13.450;2023-05-14T13:50:52;22.00;63.60
50556;DHT22;36508;52.512;13.450;2023-05-14T13:53:19;22.00;63.30
50556;DHT22;36508;52.512;13.450;2023-05-14T13:55:45;22.20;63.20
50556;DHT22;36508;52.512;13.450;2023-05-14T13:58:10;22.20;63.60
50556;DHT22;36508;52.512;13.450;2023-05-14T14:00:36;22.20;64.10
50556;DHT22;36508;52.512;13.450;2023-05-14T14:03:02;22.20;64.30
50556;DHT22;36508;52.512;13.450;2023-05-14T14:05:27;22.30;63.70
50556;DHT22;36508;52.512;13.450;2023-05-14T14:07:54;22.40;63.60
50556;DHT22;36508;52.512;13.450;2023-05-14T14:10:20;22.40;63.50
50556;DHT22;36508;52.512;13.450;2023-05-14T14:12:47;22.60;63.60
50556;DHT22;36508;52.512;13.450;2023-05-14T14:15:12;22.60;63.50
50556;DHT22;36508;52.512;13.450;2023-05-14T14:17:38;22.70;63.50
50556;DHT22;36508;52.512;13.450;2023-05-14T14:20:06;22.60;64.40
50556;DHT22;36508;52.512;13.450;2023-05-14T14:22:32;22.60;63.30
50556;DHT22;36508;52.512;13.450;2023-05-14T14:24:58;22.70;64.10
50556;DHT22;36508;52.512;13.450;2023-05-14T14:27:24;22.70;63.90
50556;DHT22;36508;52.512;13.450;2023-05-14T14:29:50;22.80;63.50
50556;DHT22;36508;52.512;13.450;2023-05-14T14:32:15;22.70;63.10
50556;DHT22;36508;52.512;13.450;2023-05-14T14:34:41;22.90;63.70
50556;DHT22;36508;52.512;13.450;2023-05-14T14:37:06;23.10;62.70
50556;DHT22;36508;52.512;13.450;2023-05-14T14:39:32;23.20;61.60
50556;DHT22;36508;52.512;13.450;2023-05-14T14:41:58;23.20;61.60
50556;DHT22;36508;52.512;13.450;2023-05-14T14:44:23;23.40;60.70
50556;DHT22;36508;52.512;13.450;2023-05-14T14:46:49;23.20;60.20
50556;DHT22;36508;52.512;13.450;2023-05-14T14:49:24;23.00;60.00
50556;DHT22;36508;52.512;13.450;2023-05-14T14:51:50;23.20;60.40
50556;DHT22;36508;52.512;13.450;2023-05-14T14:54:16;23.00;60.40
50556;DHT22;36508;52.512;13.450;2023-05-14T14:56:42;23.00;60.60
50556;DHT22;36508;52.512;13.450;2023-05-14T14:59:10;23.00;61.40
50556;DHT22;36508;52.512;13.450;2023-05-14T15:01:35;22.90;58.90
50556;DHT22;36508;52.512;13.450;2023-05-14T15:04:01;22.90;60.00
50556;DHT22;36508;52.512;13.450;2023-05-14T15:06:26;23.00;60.70
50556;DHT22;36508;52.512;13.450;2023-05-14T15:08:52;23.00;60.50
50556;DHT22;36508;52.512;13.450;2023-05-14T15:11:18;23.10;59.80
50556;DHT22;36508;52.512;13.450;2023-05-14T15:13:43;23.10;59.80
50556;DHT22;36508;52.512;13.450;2023-05-14T15:16:09;23.00;60.00
50556;DHT22;36508;52.512;13.450;2023-05-14T15:18:57;23.10;60.80
50556;DHT22;36508;52.512;13.450;2023-05-14T15:21:23;22.90;60.90
50556;DHT22;36508;52.512;13.450;2023-05-14T15:23:48;22.70;61.30
50556;DHT22;36508;52.512;13.450;2023-05-14T15:26:14;22.60;61.60
50556;DHT22;36508;52.512;13.450;2023-05-14T15:28:40;22.60;61.40